createdAt,value
2022-08-20T00:02:16.781Z,100858.81
2022-08-20T00:04:45.591Z,100864.09
2022-08-20T00:07:14.826Z,100866.75
2022-08-20T00:09:45.197Z,100865.16
2022-08-20T00:12:17.217Z,100867.78
2022-08-20T00:14:45.931Z,100862.50
2022-08-20T00:17:14.526Z,100871.22
2022-08-20T00:19:43.236Z,100867.00
2022-08-20T00:22:11.781Z,100862.78
2022-08-20T00:24:40.504Z,100859.34
2022-08-20T00:27:10.634Z,100867.25
2022-08-20T00:29:39.201Z,100861.19
2022-08-20T00:32:08.139Z,100863.03
2022-08-20T00:34:36.389Z,100870.94
2022-08-20T00:37:05.164Z,100866.69
2022-08-20T00:39:33.743Z,100872.50
2022-08-20T00:42:03.769Z,100863.53
2022-08-20T00:44:34.604Z,100867.78
2022-08-20T00:47:04.417Z,100872.00
2022-08-20T00:49:34.026Z,100859.59
2022-08-20T00:52:07.655Z,100865.66
2022-08-20T00:54:40.508Z,100870.16
2022-08-20T00:57:12.434Z,100871.19
2022-08-20T00:59:43.908Z,100866.72
2022-08-20T01:02:15.685Z,100864.06
2022-08-20T01:04:46.820Z,100865.13
2022-08-20T01:07:15.409Z,100860.63
2022-08-20T01:09:57.420Z,100857.47
2022-08-20T01:12:29.793Z,100864.34
2022-08-20T01:15:02.927Z,100860.91
2022-08-20T01:17:34.131Z,100864.59
2022-08-20T01:20:06.921Z,100861.94
2022-08-20T01:23:00.060Z,100863.53
2022-08-20T01:25:40.169Z,100863.81
2022-08-20T01:28:09.382Z,100868.28
2022-08-20T01:30:39.030Z,100859.56
2022-08-20T01:33:07.818Z,100862.22
2022-08-20T01:35:37.939Z,100864.03
2022-08-20T01:38:08.236Z,100866.41
2022-08-20T01:41:09.913Z,100865.63
2022-08-20T01:43:41.896Z,100860.06
2022-08-20T01:46:11.751Z,100857.19
2022-08-20T01:48:41.882Z,100867.72
2022-08-20T01:51:13.967Z,100856.13
2022-08-20T01:53:45.378Z,100862.47
2022-08-20T01:56:17.809Z,100859.81
2022-08-20T01:58:56.028Z,100870.91
2022-08-20T02:01:30.029Z,100871.16
2022-08-20T02:03:58.778Z,100873.81
2022-08-20T02:06:29.487Z,100866.69
2022-08-20T02:09:00.227Z,100870.38
2022-08-20T02:11:31.870Z,100870.13
2022-08-20T02:14:03.038Z,100862.47
2022-08-20T02:16:37.547Z,100860.88
2022-08-20T02:19:12.629Z,100859.81
2022-08-20T02:21:45.972Z,100854.53
2022-08-20T02:24:15.295Z,100854.00
2022-08-20T02:26:44.663Z,100852.94
2022-08-20T02:29:15.560Z,100850.31
2022-08-20T02:32:24.313Z,100843.44
2022-08-20T02:34:38.099Z,100849.78
2022-08-20T02:37:08.519Z,100841.84
2022-08-20T02:39:37.121Z,100845.53
2022-08-20T02:42:06.200Z,100851.63
2022-08-20T02:44:36.929Z,100851.63
2022-08-20T02:47:06.027Z,100850.81
2022-08-20T02:49:35.617Z,100850.03
2022-08-20T02:52:04.367Z,100846.59
2022-08-20T02:54:33.044Z,100853.72
2022-08-20T02:57:02.466Z,100860.84
2022-08-20T02:59:31.080Z,100860.84
2022-08-20T03:02:01.383Z,100855.03
2022-08-20T03:04:30.575Z,100854.25
2022-08-20T03:07:00.075Z,100855.84
2022-08-20T03:09:28.669Z,100859.53
2022-08-20T03:11:57.271Z,100860.31
2022-08-20T03:14:26.026Z,100854.50
2022-08-20T03:16:54.611Z,100856.34
2022-08-20T03:19:24.745Z,100855.56
2022-08-20T03:21:53.423Z,100855.56
2022-08-20T03:24:22.021Z,100859.00
2022-08-20T03:26:50.654Z,100859.25
2022-08-20T03:29:19.142Z,100860.03
2022-08-20T03:31:48.059Z,100858.19
2022-08-20T03:34:16.710Z,100847.91
2022-08-20T03:36:46.708Z,100859.25
2022-08-20T03:39:15.675Z,100857.66
2022-08-20T03:41:44.007Z,100856.56
2022-08-20T03:44:12.537Z,100853.91
2022-08-20T03:46:41.218Z,100858.91
2022-08-20T03:49:09.885Z,100863.16
2022-08-20T03:51:45.841Z,100866.28
2022-08-20T03:54:31.660Z,100868.09
2022-08-20T03:57:02.880Z,100862.31
2022-08-20T03:59:33.275Z,100867.34
2022-08-20T04:02:02.181Z,100869.72
2022-08-20T04:04:30.850Z,100868.69
2022-08-20T04:06:59.530Z,100866.84
2022-08-20T04:09:30.244Z,100859.72
2022-08-20T04:12:01.150Z,100858.66
2022-08-20T04:14:30.098Z,100857.59
2022-08-20T04:16:58.521Z,100859.19
2022-08-20T04:19:30.118Z,100859.69
2022-08-20T04:22:01.362Z,100856.00
2022-08-20T04:24:32.455Z,100856.53
2022-08-20T04:27:02.911Z,100863.66
2022-08-20T04:29:35.271Z,100856.03
2022-08-20T04:32:06.175Z,100862.09
2022-08-20T04:34:35.971Z,100868.97
2022-08-20T04:37:05.123Z,100867.94
2022-08-20T04:39:35.220Z,100876.66
2022-08-20T04:42:03.793Z,100869.53
2022-08-20T04:44:32.319Z,100872.16
2022-08-20T04:47:02.149Z,100874.81
2022-08-20T04:49:30.664Z,100867.69
2022-08-20T04:51:59.599Z,100874.53
2022-08-20T04:54:27.938Z,100869.75
2022-08-20T04:56:57.861Z,100881.09
2022-08-20T04:59:27.123Z,100879.78
2022-08-20T05:01:55.705Z,100877.66
2022-08-20T05:04:27.730Z,100878.25
2022-08-20T05:06:56.259Z,100867.41
2022-08-20T05:09:24.952Z,100873.50
2022-08-20T05:11:53.600Z,100868.22
2022-08-20T05:14:23.647Z,100870.84
2022-08-20T05:16:53.418Z,100879.56
2022-08-20T05:19:22.473Z,100875.09
2022-08-20T05:21:52.513Z,100872.97
2022-08-20T05:24:21.543Z,100870.81
2022-08-20T05:26:50.212Z,100875.59
2022-08-20T05:29:18.817Z,100869.81
2022-08-20T05:31:49.142Z,100873.25
2022-08-20T05:34:17.702Z,100872.19
2022-08-20T05:36:49.769Z,100871.13
2022-08-20T05:39:19.220Z,100867.19
2022-08-20T05:41:49.674Z,100865.34
2022-08-20T05:44:19.612Z,100865.88
2022-08-20T05:46:49.888Z,100867.47
2022-08-20T05:49:21.992Z,100862.44
2022-08-20T05:51:52.289Z,100864.03
2022-08-20T05:54:20.987Z,100860.59
2022-08-20T05:56:49.494Z,100863.22
2022-08-20T05:59:23.561Z,100871.41
2022-08-20T06:01:54.050Z,100867.97
2022-08-20T06:04:28.740Z,100862.69
2022-08-20T06:06:59.760Z,100862.69
2022-08-20T06:09:31.672Z,100871.66
2022-08-20T06:12:02.912Z,100865.06
2022-08-20T06:14:32.704Z,100871.94
2022-08-20T06:17:07.742Z,100873.28
2022-08-20T06:19:37.627Z,100874.31
2022-08-20T06:22:18.024Z,100871.69
2022-08-20T06:24:50.878Z,100866.41
2022-08-20T06:27:20.347Z,100869.84
2022-08-20T06:29:49.653Z,100868.00
2022-08-20T06:32:31.939Z,100868.78
2022-08-20T06:35:03.655Z,100869.84
2022-08-20T06:37:33.271Z,100869.84
2022-08-20T06:40:04.776Z,100872.47
2022-08-20T06:42:33.464Z,100866.41
2022-08-20T06:45:05.084Z,100870.63
2022-08-20T06:47:36.277Z,100866.94
2022-08-20T06:50:05.420Z,100866.94
2022-08-20T06:52:52.386Z,100870.38
2022-08-20T06:55:22.260Z,100870.63
2022-08-20T06:57:58.213Z,100868.53
2022-08-20T07:00:27.474Z,100875.66
2022-08-20T07:02:57.766Z,100884.38
2022-08-20T07:05:26.878Z,100878.28
2022-08-20T07:07:55.566Z,100870.91
2022-08-20T07:10:25.946Z,100869.06
2022-08-20T07:12:54.671Z,100871.72
2022-08-20T07:15:26.342Z,100871.19
2022-08-20T07:18:01.412Z,100869.09
2022-08-20T07:20:31.901Z,100867.50
2022-08-20T07:23:01.368Z,100865.66
2022-08-20T07:25:31.493Z,100868.28
2022-08-20T07:28:02.872Z,100866.44
2022-08-20T07:30:57.124Z,100861.94
2022-08-20T07:33:29.300Z,100865.66
2022-08-20T07:35:58.467Z,100873.31
2022-08-20T07:38:30.686Z,100867.78
2022-08-20T07:41:01.403Z,100864.06
2022-08-20T07:43:31.313Z,100862.75
2022-08-20T07:46:03.217Z,100864.34
2022-08-20T07:48:33.228Z,100863.56
2022-08-20T07:51:05.457Z,100865.16
2022-08-20T07:53:36.117Z,100857.22
2022-08-20T07:56:07.344Z,100865.94
2022-08-20T07:58:37.352Z,100862.25
2022-08-20T08:01:07.428Z,100864.63
2022-08-20T08:03:49.140Z,100860.94
2022-08-20T08:06:29.243Z,100860.13
2022-08-20T08:09:03.268Z,100862.78
2022-08-20T08:11:34.819Z,100870.44
2022-08-20T08:14:06.473Z,100865.16
2022-08-20T08:16:35.720Z,100863.03
2022-08-20T08:19:09.991Z,100865.69
2022-08-20T08:21:39.200Z,100865.44
2022-08-20T08:24:08.265Z,100862.78
2022-08-20T08:26:36.890Z,100860.94
2022-08-20T08:29:07.723Z,100866.75
2022-08-20T08:31:36.394Z,100849.31
2022-08-20T08:34:06.413Z,100850.91
2022-08-20T08:36:35.060Z,100855.41
2022-08-20T08:39:03.719Z,100858.84
2022-08-20T08:41:36.532Z,100856.19
2022-08-20T08:44:08.383Z,100857.78
2022-08-20T08:46:41.939Z,100849.84
2022-08-20T08:49:15.753Z,100849.06
2022-08-20T08:51:56.674Z,100840.34
2022-08-20T08:54:28.033Z,100845.63
2022-08-20T08:56:56.934Z,100839.56
2022-08-20T08:59:30.678Z,100835.06
2022-08-20T09:02:22.458Z,100835.31
2022-08-20T09:04:54.054Z,100832.69
2022-08-20T09:07:24.541Z,100836.38
2022-08-20T09:09:53.551Z,100844.03
2022-08-20T09:12:25.094Z,100836.38
2022-08-20T09:14:53.975Z,100834.53
2022-08-20T09:17:23.443Z,100831.63
2022-08-20T09:19:53.407Z,100834.25
2022-08-20T09:22:23.671Z,100839.81
2022-08-20T09:24:52.459Z,100830.03
2022-08-20T09:27:21.264Z,100836.91
2022-08-20T09:29:50.387Z,100837.69
2022-08-20T09:32:21.377Z,100835.84
2022-08-20T09:34:56.483Z,100830.56
2022-08-20T09:37:26.557Z,100834.00
2022-08-20T09:39:55.296Z,100825.03
2022-08-20T09:42:26.803Z,100826.59
2022-08-20T09:44:56.109Z,100826.59
2022-08-20T09:47:24.957Z,100808.91
2022-08-20T09:49:56.382Z,100806.28
2022-08-20T09:52:26.947Z,100802.56
2022-08-20T09:54:59.226Z,100810.50
2022-08-20T09:57:31.537Z,100806.28
2022-08-20T10:00:02.940Z,100807.06
2022-08-20T10:02:41.026Z,100809.97
2022-08-20T10:05:12.427Z,100800.19
2022-08-20T10:07:42.025Z,100802.84
2022-08-20T10:10:13.371Z,100808.13
2022-08-20T10:12:43.264Z,100807.06
2022-08-20T10:15:12.493Z,100809.72
2022-08-20T10:17:42.591Z,100807.06
2022-08-20T10:20:14.779Z,100807.06
2022-08-20T10:22:43.506Z,100807.31
2022-08-20T10:25:12.753Z,100805.22
2022-08-20T10:27:42.272Z,100807.06
2022-08-20T10:30:11.723Z,100805.47
2022-08-20T10:32:40.438Z,100808.13
2022-08-20T10:35:09.756Z,100807.31
2022-08-20T10:37:39.812Z,100803.91
2022-08-20T10:40:09.753Z,100805.47
2022-08-20T10:42:42.508Z,100804.69
2022-08-20T10:45:12.793Z,100807.06
2022-08-20T10:47:41.700Z,100799.94
2022-08-20T10:50:11.021Z,100803.34
2022-08-20T10:52:41.023Z,100797.00
2022-08-20T10:55:10.482Z,100798.34
2022-08-20T10:57:42.153Z,100794.91
2022-08-20T11:00:14.911Z,100800.19
2022-08-20T11:02:43.804Z,100793.06
2022-08-20T11:05:12.069Z,100800.72
2022-08-20T11:07:54.930Z,100790.94
2022-08-20T11:10:33.429Z,100783.81
2022-08-20T11:13:02.845Z,100788.56
2022-08-20T11:15:31.654Z,100784.88
2022-08-20T11:18:00.249Z,100784.88
2022-08-20T11:20:28.758Z,100782.22
2022-08-20T11:22:58.965Z,100774.84
2022-08-20T11:25:29.960Z,100770.09
2022-08-20T11:27:59.274Z,100768.50
2022-08-20T11:30:31.323Z,100762.97
2022-08-20T11:33:00.753Z,100764.81
2022-08-20T11:35:49.963Z,100764.53
2022-08-20T11:38:20.780Z,100762.16
2022-08-20T11:40:49.486Z,100762.16
2022-08-20T11:43:18.433Z,100756.09
2022-08-20T11:45:54.004Z,100757.66
2022-08-20T11:48:22.687Z,100753.19
2022-08-20T11:50:52.405Z,100749.75
2022-08-20T11:53:22.428Z,100748.69
2022-08-20T11:55:51.218Z,100746.31
2022-08-20T11:58:19.775Z,100741.81
2022-08-20T12:00:48.682Z,100747.91
2022-08-20T12:03:17.450Z,100744.22
2022-08-20T12:05:47.084Z,100734.16
2022-08-20T12:08:26.903Z,100732.31
2022-08-20T12:10:58.765Z,100729.41
2022-08-20T12:13:30.850Z,100728.34
2022-08-20T12:16:06.152Z,100729.94
2022-08-20T12:18:34.965Z,100737.59
2022-08-20T12:21:03.522Z,100725.19
2022-08-20T12:23:32.157Z,100731.25
2022-08-20T12:26:03.330Z,100732.06
2022-08-20T12:28:32.385Z,100731.00
2022-08-20T12:31:00.673Z,100729.94
2022-08-20T12:33:29.260Z,100729.94
2022-08-20T12:35:58.617Z,100731.25
2022-08-20T12:38:27.270Z,100725.72
2022-08-20T12:40:55.853Z,100725.72
2022-08-20T12:43:25.831Z,100727.31
2022-08-20T12:45:54.522Z,100725.97
2022-08-20T12:48:23.126Z,100724.41
2022-08-20T12:50:52.931Z,100727.81
2022-08-20T12:53:21.572Z,100722.53
2022-08-20T12:55:50.124Z,100728.34
2022-08-20T12:58:19.433Z,100722.28
2022-08-20T13:00:51.193Z,100726.78
2022-08-20T13:03:21.079Z,100723.06
2022-08-20T13:05:50.729Z,100725.72
2022-08-20T13:08:19.618Z,100729.16
2022-08-20T13:10:48.799Z,100720.19
2022-08-20T13:13:20.934Z,100725.47
2022-08-20T13:15:52.280Z,100722.53
2022-08-20T13:18:21.422Z,100721.22
2022-08-20T13:20:50.617Z,100719.91
2022-08-20T13:23:19.293Z,100719.91
2022-08-20T13:25:48.015Z,100719.91
2022-08-20T13:28:16.578Z,100712.50
2022-08-20T13:30:45.193Z,100710.41
2022-08-20T13:33:15.299Z,100710.94
2022-08-20T13:35:43.938Z,100705.38
2022-08-20T13:38:12.496Z,100706.69
2022-08-20T13:40:41.175Z,100694.28
2022-08-20T13:43:11.930Z,100694.28
2022-08-20T13:45:42.200Z,100695.09
2022-08-20T13:48:14.700Z,100699.31
2022-08-20T13:50:47.033Z,100700.66
2022-08-20T13:53:17.304Z,100703.03
2022-08-20T13:55:46.893Z,100700.91
2022-08-20T13:58:15.499Z,100695.63
2022-08-20T14:00:44.664Z,100696.19
2022-08-20T14:03:13.746Z,100688.00
2022-08-20T14:05:47.857Z,100693.00
2022-08-20T14:08:18.742Z,100687.72
2022-08-20T14:10:51.413Z,100688.53
2022-08-20T14:13:22.200Z,100684.03
2022-08-20T14:15:51.257Z,100674.25
2022-08-20T14:18:20.409Z,100678.47
2022-08-20T14:20:50.533Z,100672.94
2022-08-20T14:23:19.063Z,100674.78
2022-08-20T14:25:49.615Z,100680.06
2022-08-20T14:28:21.214Z,100682.72
2022-08-20T14:30:53.204Z,100670.28
2022-08-20T14:33:23.220Z,100667.66
2022-08-20T14:35:53.814Z,100674.50
2022-08-20T14:38:22.710Z,100670.03
2022-08-20T14:40:51.445Z,100669.22
2022-08-20T14:43:20.227Z,100673.47
2022-08-20T14:45:48.703Z,100675.03
2022-08-20T14:48:17.260Z,100665.53
2022-08-20T14:50:45.899Z,100661.84
2022-08-20T14:53:15.862Z,100661.56
2022-08-20T14:55:44.617Z,100654.69
2022-08-20T14:58:15.216Z,100666.84
2022-08-20T15:00:45.244Z,100654.44
2022-08-20T15:03:14.558Z,100667.38
2022-08-20T15:05:44.015Z,100657.59
2022-08-20T15:08:12.695Z,100659.19
2022-08-20T15:10:43.277Z,100658.91
2022-08-20T15:13:11.918Z,100662.63
2022-08-20T15:15:40.711Z,100662.34
2022-08-20T15:18:09.768Z,100668.69
2022-08-20T15:20:39.188Z,100672.13
2022-08-20T15:23:08.328Z,100672.91
2022-08-20T15:25:37.970Z,100675.31
2022-08-20T15:28:10.492Z,100670.81
2022-08-20T15:30:40.989Z,100677.41
2022-08-20T15:33:10.644Z,100679.28
2022-08-20T15:35:39.507Z,100671.06
2022-08-20T15:38:07.987Z,100678.75
2022-08-20T15:40:36.694Z,100680.34
2022-08-20T15:43:07.434Z,100679.81
2022-08-20T15:45:36.763Z,100679.53
2022-08-20T15:48:12.753Z,100675.56
2022-08-20T15:51:15.836Z,100679.25
2022-08-20T15:53:54.887Z,100680.06
2022-08-20T15:56:41.901Z,100680.59
2022-08-20T15:59:23.651Z,100677.16
2022-08-20T16:02:01.402Z,100677.16
2022-08-20T16:04:50.675Z,100668.16
2022-08-20T16:07:26.381Z,100672.94
2022-08-20T16:10:07.921Z,100679.00
2022-08-20T16:12:40.964Z,100682.69
2022-08-20T16:15:13.949Z,100679.28
2022-08-20T16:17:47.967Z,100675.56
2022-08-20T16:20:22.437Z,100671.34
2022-08-20T16:22:53.269Z,100678.47
2022-08-20T16:25:24.259Z,100679.28
2022-08-20T16:28:10.375Z,100685.34
2022-08-20T16:30:44.664Z,100690.91
2022-08-20T16:33:20.273Z,100693.53
2022-08-20T16:35:53.661Z,100686.66
2022-08-20T16:38:30.708Z,100694.31
2022-08-20T16:41:08.261Z,100698.03
2022-08-20T16:43:41.205Z,100703.59
2022-08-20T16:46:17.796Z,100696.72
2022-08-20T16:48:52.787Z,100706.22
2022-08-20T16:51:30.584Z,100700.16
2022-08-20T16:53:59.582Z,100703.06
2022-08-20T16:56:35.983Z,100704.63
2022-08-20T16:59:06.946Z,100701.47
2022-08-20T17:01:37.672Z,100706.75
2022-08-20T17:04:06.665Z,100705.16
2022-08-20T17:06:39.740Z,100698.03
2022-08-20T17:09:29.942Z,100700.69
2022-08-20T17:12:15.148Z,100705.97
2022-08-20T17:14:50.439Z,100710.72
2022-08-20T17:17:26.176Z,100721.03
2022-08-20T17:19:57.081Z,100731.59
2022-08-20T17:22:27.065Z,100733.16
2022-08-20T17:24:56.149Z,100732.38
2022-08-20T17:27:38.939Z,100734.50
2022-08-20T17:30:19.831Z,100736.59
2022-08-20T17:32:58.747Z,100742.69
2022-08-20T17:35:36.658Z,100735.56
2022-08-20T17:38:06.133Z,100744.53
2022-08-20T17:40:41.745Z,100744.25
2022-08-20T17:43:11.619Z,100746.38
2022-08-20T17:45:43.993Z,100749.56
2022-08-20T17:48:18.157Z,100747.97
2022-08-20T17:50:46.761Z,100750.59
2022-08-20T17:53:23.374Z,100753.25
2022-08-20T17:55:54.949Z,100758.53
2022-08-20T17:58:37.149Z,100767.50
2022-08-20T18:01:09.118Z,100763.28
2022-08-20T18:03:43.205Z,100772.00
2022-08-20T18:06:20.889Z,100771.22
2022-08-20T18:08:58.608Z,100770.41
2022-08-20T18:11:34.331Z,100770.69
2022-08-20T18:14:18.801Z,100768.84
2022-08-20T18:17:00.660Z,100770.94
2022-08-20T18:19:48.539Z,100771.97
2022-08-20T18:22:19.841Z,100766.44
2022-08-20T18:24:54.996Z,100779.38
2022-08-20T18:27:28.102Z,100778.56
2022-08-20T18:30:00.393Z,100781.22
2022-08-20T18:32:32.723Z,100789.16
2022-08-20T18:35:32.702Z,100785.19
2022-08-20T18:38:12.726Z,100783.88
2022-08-20T18:40:41.788Z,100772.75
2022-08-20T18:43:14.537Z,100775.94
2022-08-20T18:45:43.702Z,100765.38
2022-08-20T18:48:22.846Z,100761.69
2022-08-20T18:50:57.365Z,100756.66
2022-08-20T18:53:33.840Z,100758.50
2022-08-20T18:56:06.038Z,100758.78
2022-08-20T18:58:38.160Z,100760.63
2022-08-20T19:01:14.859Z,100763.78
2022-08-20T19:03:46.507Z,100759.56
2022-08-20T19:06:29.863Z,100759.56
2022-08-20T19:09:05.716Z,100760.84
2022-08-20T19:12:09.934Z,100769.06
2022-08-20T19:15:01.327Z,100759.00
2022-08-20T19:17:46.568Z,100754.78
2022-08-20T19:20:19.182Z,100750.03
2022-08-20T19:22:51.987Z,100754.25
2022-08-20T19:25:27.334Z,100757.69
2022-08-20T19:27:58.055Z,100750.81
2022-08-20T19:30:35.950Z,100738.41
2022-08-20T19:33:06.116Z,100739.44
2022-08-20T19:35:35.041Z,100745.78
2022-08-20T19:38:08.483Z,100755.31
2022-08-20T19:40:40.180Z,100751.88
2022-08-20T19:43:18.194Z,100751.59
2022-08-20T19:45:50.630Z,100746.84
2022-08-20T19:48:32.377Z,100749.78
2022-08-20T19:51:10.304Z,100750.31
2022-08-20T19:53:46.895Z,100748.47
2022-08-20T19:56:18.884Z,100756.38
2022-08-20T19:58:58.682Z,100750.06
2022-08-20T20:01:27.265Z,100757.75
2022-08-20T20:03:58.796Z,100755.91
2022-08-20T20:06:28.465Z,100751.13
2022-08-20T20:09:03.411Z,100748.22
2022-08-20T20:11:36.082Z,100750.06
2022-08-20T20:14:08.151Z,100752.72
2022-08-20T20:16:37.976Z,100749.81
2022-08-20T20:19:30.489Z,100752.47
2022-08-20T20:22:08.499Z,100746.38
2022-08-20T20:25:00.506Z,100742.16
2022-08-20T20:27:29.969Z,100745.84
2022-08-20T20:30:03.624Z,100746.38
2022-08-20T20:32:34.089Z,100742.94
2022-08-20T20:35:06.951Z,100748.75
2022-08-20T20:37:48.690Z,100742.94
2022-08-20T20:40:26.328Z,100741.09
2022-08-20T20:43:01.632Z,100735.28
2022-08-20T20:45:34.701Z,100737.94
2022-08-20T20:48:13.213Z,100730.78
2022-08-20T20:50:42.472Z,100731.06
2022-08-20T20:53:11.496Z,100726.84
2022-08-20T20:55:42.883Z,100728.41
2022-08-20T20:58:11.532Z,100733.97
2022-08-20T21:00:40.235Z,100735.81
2022-08-20T21:03:08.791Z,100733.41
2022-08-20T21:05:37.368Z,100742.13
2022-08-20T21:08:09.534Z,100734.19
2022-08-20T21:10:40.945Z,100736.84
2022-08-20T21:13:12.097Z,100722.03
2022-08-20T21:15:41.366Z,100736.31
2022-08-20T21:18:10.700Z,100729.44
2022-08-20T21:20:39.340Z,100733.94
2022-08-20T21:23:07.963Z,100730.78
2022-08-20T21:25:36.866Z,100729.94
2022-08-20T21:28:05.455Z,100728.09
2022-08-20T21:30:35.482Z,100717.53
2022-08-20T21:33:04.151Z,100718.06
2022-08-20T21:35:32.847Z,100718.84
2022-08-20T21:38:01.590Z,100719.66
2022-08-20T21:40:30.219Z,100710.13
2022-08-20T21:42:59.516Z,100719.66
2022-08-20T21:45:29.268Z,100713.56
2022-08-20T21:47:59.409Z,100704.84
2022-08-20T21:50:28.649Z,100705.66
2022-08-20T21:52:59.565Z,100701.94
2022-08-20T21:55:33.932Z,100701.16
2022-08-20T21:58:06.071Z,100700.38
2022-08-20T22:00:54.084Z,100701.69
2022-08-20T22:03:26.844Z,100699.31
2022-08-20T22:05:56.169Z,100694.03
2022-08-20T22:08:28.085Z,100699.31
2022-08-20T22:10:57.915Z,100700.09
2022-08-20T22:13:31.501Z,100703.53
2022-08-20T22:16:00.545Z,100701.94
2022-08-20T22:18:30.803Z,100697.47
2022-08-20T22:20:59.552Z,100703.78
2022-08-20T22:23:28.872Z,100701.16
2022-08-20T22:25:57.406Z,100701.94
2022-08-20T22:28:26.795Z,100694.03
2022-08-20T22:30:55.448Z,100681.88
2022-08-20T22:33:24.721Z,100690.59
2022-08-20T22:35:57.880Z,100682.16
2022-08-20T22:38:27.473Z,100668.94
2022-08-20T22:40:56.235Z,100672.38
2022-08-20T22:43:25.198Z,100670.78
2022-08-20T22:45:55.391Z,100675.00
2022-08-20T22:48:23.712Z,100671.06
2022-08-20T22:50:53.083Z,100666.84
2022-08-20T22:53:23.813Z,100675.53
2022-08-20T22:55:52.228Z,100662.06
2022-08-20T22:58:31.303Z,100659.69
2022-08-20T23:01:01.238Z,100663.66
2022-08-20T23:03:39.094Z,100665.78
2022-08-20T23:06:09.942Z,100666.03
2022-08-20T23:08:39.962Z,100657.59
2022-08-20T23:11:08.286Z,100660.22
2022-08-20T23:13:36.650Z,100664.72
2022-08-20T23:16:05.109Z,100664.44
2022-08-20T23:18:33.388Z,100669.72
2022-08-20T23:21:02.041Z,100675.81
2022-08-20T23:23:30.451Z,100675.81
2022-08-20T23:26:00.324Z,100675.00
2022-08-20T23:28:28.734Z,100672.63
2022-08-20T23:30:56.977Z,100664.72
2022-08-20T23:33:25.488Z,100669.19
2022-08-20T23:35:53.788Z,100667.63
2022-08-20T23:38:22.134Z,100661.53
2022-08-20T23:40:50.535Z,100658.38
2022-08-20T23:43:20.181Z,100662.59
2022-08-20T23:45:48.867Z,100666.28
2022-08-20T23:48:17.273Z,100669.72
2022-08-20T23:50:45.650Z,100665.50
2022-08-20T23:53:13.861Z,100661.00
2022-08-20T23:55:42.251Z,100662.88
2022-08-20T23:58:10.544Z,100659.66
